Time;durP1;ratioP1;P1;durP2;ratioP2;P2;SDS_P1;SDS_P2;PMS_P1;PMS_P2;Temp;Humidity;BMP_temperature;BMP_pressure;BME280_temperature;BME280_humidity;BME280_pressure;Samples;Min_cycle;Max_cycle;Signal;HPM_P1;HPM_P2
2023/01/13 00:03:51;;;;;;;2.80;0.70;;;;;;;11.96;54.72;97497.00;8314355;28;20230;-74
2023/01/13 00:07:53;;;;;;;1.10;0.80;;;;;;;11.90;54.27;97485.22;8314291;28;20280;-74
2023/01/13 00:11:56;;;;;;;1.13;0.60;;;;;;;11.89;54.27;97483.53;8314424;28;20297;-74
2023/01/13 00:16:03;;;;;;;1.03;0.40;;;;;;;11.80;55.08;97476.25;8313978;28;20246;-74
2023/01/13 00:20:07;;;;;;;1.70;0.70;;;;;;;11.79;55.34;97474.59;8314117;28;20301;-76
2023/01/13 00:24:10;;;;;;;1.57;0.60;;;;;;;11.96;55.74;97467.66;8314083;28;20226;-75
2023/01/13 00:28:13;;;;;;;1.63;0.60;;;;;;;11.82;56.37;97463.19;8314098;28;20237;-75
2023/01/13 00:32:17;;;;;;;1.67;0.60;;;;;;;11.85;56.50;97448.28;8313741;28;20233;-75
2023/01/13 00:36:21;;;;;;;1.67;0.70;;;;;;;11.76;57.24;97446.22;8313820;28;20231;-75
2023/01/13 00:40:24;;;;;;;2.00;0.60;;;;;;;11.81;57.02;97443.38;8313520;28;20413;-75
2023/01/13 00:44:27;;;;;;;1.30;0.53;;;;;;;11.82;56.45;97448.50;8313597;28;20234;-74
2023/01/13 00:48:31;;;;;;;1.87;0.60;;;;;;;11.61;56.82;97445.34;8313435;28;20237;-75
2023/01/13 00:52:34;;;;;;;2.87;0.67;;;;;;;11.87;55.92;97432.66;8313426;28;20222;-74
2023/01/13 00:56:38;;;;;;;1.30;0.57;;;;;;;11.86;55.80;97428.38;8313092;28;20232;-75
2023/01/13 01:00:42;;;;;;;1.37;0.73;;;;;;;11.66;56.53;97414.78;8312706;28;20290;-75
2023/01/13 01:04:47;;;;;;;2.23;0.67;;;;;;;11.76;55.63;97407.31;8313197;28;20233;-75
2023/01/13 01:08:50;;;;;;;1.77;0.60;;;;;;;11.86;55.53;97416.25;8313006;28;20230;-75
2023/01/13 01:12:53;;;;;;;1.80;0.80;;;;;;;11.61;55.53;97410.78;8312979;28;20563;-75
2023/01/13 01:16:56;;;;;;;1.40;0.70;;;;;;;11.81;55.44;97404.47;8312751;28;20231;-76
2023/01/13 01:21:01;;;;;;;2.40;0.70;;;;;;;11.75;55.58;97410.84;8312898;28;20230;-75
2023/01/13 01:25:04;;;;;;;4.50;0.63;;;;;;;11.42;54.89;97361.75;8312591;28;20273;-75
2023/01/13 01:29:07;;;;;;;1.50;0.50;;;;;;;11.74;55.13;97419.53;8312782;28;20230;-75
2023/01/13 01:33:09;;;;;;;2.07;0.80;;;;;;;11.78;54.90;97421.03;8312962;28;20444;-75
2023/01/13 01:37:13;;;;;;;0.93;0.50;;;;;;;11.83;54.89;97421.59;8312798;28;20246;-75
2023/01/13 01:41:22;;;;;;;1.27;0.60;;;;;;;11.93;54.84;97417.56;8312630;28;20235;-75
2023/01/13 01:45:27;;;;;;;2.10;0.80;;;;;;;11.92;54.38;97410.72;8312320;28;20458;-75
2023/01/13 01:49:32;;;;;;;1.47;0.80;;;;;;;12.03;54.61;97411.84;8312577;28;20234;-75
2023/01/13 01:53:36;;;;;;;1.90;0.63;;;;;;;11.84;54.79;97405.13;8313850;28;20226;-75
2023/01/13 01:57:41;;;;;;;1.93;0.70;;;;;;;11.80;54.98;97393.22;8318336;28;20234;-74
2023/01/13 02:01:45;;;;;;;1.17;0.50;;;;;;;11.83;54.72;97400.84;8317777;28;20302;-74
2023/01/13 02:05:48;;;;;;;1.87;0.60;;;;;;;11.78;55.02;97392.50;8317767;28;20322;-74
2023/01/13 02:09:53;;;;;;;2.30;0.90;;;;;;;11.82;55.10;97388.81;8317735;28;20245;-74
2023/01/13 02:13:56;;;;;;;1.83;0.90;;;;;;;11.79;54.65;97385.56;8317794;28;20226;-74
2023/01/13 02:18:11;;;;;;;1.60;0.60;;;;;;;11.81;54.64;97383.72;8317630;28;20227;-74
2023/01/13 02:22:29;;;;;;;2.50;0.90;;;;;;;11.87;54.62;97360.81;8317724;28;20226;-74
2023/01/13 02:26:51;;;;;;;3.37;0.80;;;;;;;11.97;54.75;97368.09;8317348;28;20265;-74
2023/01/13 02:35:24;;;;;;;1.67;0.70;;;;;;;11.65;55.21;97340.53;8317287;28;20289;-74
2023/01/13 02:39:31;;;;;;;3.13;0.60;;;;;;;11.85;55.32;97351.47;8317077;28;20253;-74
2023/01/13 02:47:59;;;;;;;1.57;0.57;;;;;;;11.79;55.82;97346.66;8316593;28;20233;-76
2023/01/13 02:52:08;;;;;;;1.87;0.70;;;;;;;11.91;55.15;97346.78;8316961;28;20234;-74
2023/01/13 02:56:11;;;;;;;0.87;0.50;;;;;;;11.86;55.05;97340.16;8316861;28;20537;-75
2023/01/13 03:00:15;;;;;;;1.37;0.40;;;;;;;11.80;55.23;97341.34;8316759;28;20241;-75
2023/01/13 03:04:45;;;;;;;1.73;0.50;;;;;;;11.96;54.98;97335.31;8316442;28;20410;-74
2023/01/13 03:08:50;;;;;;;2.30;0.80;;;;;;;11.86;55.89;97332.38;8315691;28;20249;-75
2023/01/13 03:13:01;;;;;;;1.60;0.60;;;;;;;11.97;56.11;97331.78;8316170;28;20525;-75
2023/01/13 03:17:12;;;;;;;0.67;0.50;;;;;;;11.90;56.13;97328.72;8316357;28;20226;-75
2023/01/13 03:21:21;;;;;;;3.30;0.90;;;;;;;12.09;55.40;97325.84;8315981;28;20513;-75
2023/01/13 03:25:27;;;;;;;2.20;0.80;;;;;;;11.96;56.03;97327.53;8315855;28;20215;-76
2023/01/13 03:29:34;;;;;;;1.20;0.50;;;;;;;11.85;56.34;97323.75;8315999;28;20533;-76
2023/01/13 03:33:40;;;;;;;0.77;0.40;;;;;;;11.93;55.71;97300.81;8315604;28;20230;-76
2023/01/13 03:37:47;;;;;;;1.60;0.60;;;;;;;12.00;55.62;97314.25;8315050;28;20457;-76
2023/01/13 03:41:53;;;;;;;1.33;0.57;;;;;;;11.89;56.03;97314.03;8315276;28;20230;-76
2023/01/13 03:45:59;;;;;;;1.20;0.60;;;;;;;11.96;55.70;97311.97;8315033;28;20233;-76
2023/01/13 03:50:04;;;;;;;1.00;0.60;;;;;;;12.04;55.60;97322.69;8314965;28;20400;-75
2023/01/13 03:54:11;;;;;;;1.27;0.57;;;;;;;12.05;55.81;97324.34;8314863;28;20242;-75
2023/01/13 03:58:16;;;;;;;2.23;0.50;;;;;;;11.92;56.33;97311.31;8314780;28;20280;-76
2023/01/13 04:02:22;;;;;;;0.93;0.60;;;;;;;12.02;56.44;97321.97;8314840;28;20230;-76
2023/01/13 04:06:31;;;;;;;1.80;0.50;;;;;;;12.00;56.42;97313.44;8314198;28;20231;-76
2023/01/13 04:10:41;;;;;;;1.50;0.60;;;;;;;12.02;56.47;97309.81;8314487;28;20226;-76
2023/01/13 04:14:44;;;;;;;1.33;0.57;;;;;;;12.08;56.15;97309.44;8313938;28;20419;-76
2023/01/13 04:18:49;;;;;;;1.83;0.70;;;;;;;12.08;56.38;97304.25;8313633;28;20237;-75
2023/01/13 04:22:52;;;;;;;1.27;0.50;;;;;;;11.93;56.77;97308.59;8313939;28;20243;-75
2023/01/13 04:26:57;;;;;;;1.50;0.43;;;;;;;11.57;57.76;97303.81;8314053;28;20218;-75
2023/01/13 04:30:59;;;;;;;1.50;0.50;;;;;;;11.96;56.84;97311.97;8313916;28;20235;-75
2023/01/13 04:35:02;;;;;;;1.33;0.40;;;;;;;12.10;56.76;97311.94;8313794;28;20222;-75
2023/01/13 04:39:05;;;;;;;1.53;0.50;;;;;;;11.93;56.90;97305.16;8313636;28;20302;-75
2023/01/13 04:43:09;;;;;;;2.47;0.47;;;;;;;11.48;57.23;97242.97;8313461;28;20222;-75
2023/01/13 04:47:12;;;;;;;1.83;0.60;;;;;;;12.02;56.84;97308.97;8313445;28;20222;-76
2023/01/13 04:51:15;;;;;;;0.77;0.50;;;;;;;12.04;57.13;97301.94;8313403;28;20281;-75
2023/01/13 04:55:18;;;;;;;0.47;0.33;;;;;;;12.00;57.12;97316.84;8313200;28;20222;-75
2023/01/13 04:59:22;;;;;;;1.60;0.50;;;;;;;12.01;57.34;97300.34;8313481;28;20233;-75
2023/01/13 05:03:25;;;;;;;0.80;0.40;;;;;;;11.89;57.78;97314.03;8313131;28;20222;-75
2023/01/13 05:07:28;;;;;;;0.57;0.40;;;;;;;11.98;57.60;97307.50;8312963;28;20234;-75
2023/01/13 05:20:13;;;;;;;1.23;0.43;;;;;;;12.03;57.68;97314.09;8313219;28;20252;-76
2023/01/13 05:28:36;;;;;;;3.20;0.50;;;;;;;11.96;57.48;97304.16;8315148;28;20237;-76
2023/01/13 05:32:40;;;;;;;1.00;0.60;;;;;;;12.24;56.89;97303.28;8319740;28;20233;-75
2023/01/13 05:36:43;;;;;;;0.80;0.37;;;;;;;12.14;56.96;97305.63;8318955;28;20222;-76
2023/01/13 05:45:07;;;;;;;2.30;0.60;;;;;;;12.14;56.87;97300.44;8318942;28;20226;-75
2023/01/13 05:49:11;;;;;;;2.33;0.50;;;;;;;12.12;57.68;97297.09;8319003;28;20245;-75
2023/01/13 05:53:14;;;;;;;0.87;0.50;;;;;;;12.15;56.97;97294.34;8318672;28;20233;-76
2023/01/13 05:57:16;;;;;;;1.70;0.40;;;;;;;11.39;56.92;97183.06;8318569;28;20230;-75
2023/01/13 06:01:19;;;;;;;1.83;0.70;;;;;;;11.80;57.93;97268.72;8318713;28;20538;-74
2023/01/13 06:05:23;;;;;;;0.73;0.50;;;;;;;12.21;57.01;97290.53;8318528;28;20231;-76
2023/01/13 06:09:26;;;;;;;1.57;0.50;;;;;;;12.32;56.74;97283.72;8318310;28;20238;-74
2023/01/13 06:13:29;;;;;;;2.40;0.83;;;;;;;12.08;56.71;97285.25;8318231;28;20230;-75
2023/01/13 06:17:32;;;;;;;1.30;0.50;;;;;;;12.01;56.68;97283.94;8317763;28;20309;-74
2023/01/13 06:21:36;;;;;;;1.50;0.70;;;;;;;12.18;56.28;97288.09;8317844;28;20230;-75
2023/01/13 06:25:44;;;;;;;0.87;0.70;;;;;;;12.19;55.82;97280.22;8317800;28;20227;-75
2023/01/13 06:29:47;;;;;;;1.20;0.60;;;;;;;12.05;55.78;97254.28;8317249;28;20222;-75
2023/01/13 06:33:53;;;;;;;2.10;1.00;;;;;;;12.26;55.84;97273.75;8317492;28;20267;-75
2023/01/13 06:37:58;;;;;;;0.73;0.60;;;;;;;12.05;55.89;97288.00;8317377;28;20255;-76
2023/01/13 06:46:21;;;;;;;1.53;0.80;;;;;;;11.74;57.39;97293.25;8317171;28;20222;-75
2023/01/13 06:50:24;;;;;;;1.13;0.70;;;;;;;12.17;56.07;97295.06;8317061;28;20232;-75
2023/01/13 06:54:28;;;;;;;1.77;1.10;;;;;;;11.84;56.59;97300.50;8317062;28;20328;-75
2023/01/13 06:58:30;;;;;;;2.33;0.83;;;;;;;11.81;56.52;97298.09;8316610;28;20227;-75
2023/01/13 07:02:33;;;;;;;1.10;0.77;;;;;;;11.50;57.07;97294.75;8316826;28;20222;-75
2023/01/13 07:06:36;;;;;;;1.50;0.83;;;;;;;11.91;56.15;97287.09;8316258;28;20237;-75
2023/01/13 07:10:40;;;;;;;2.17;0.93;;;;;;;11.92;56.24;97283.59;8316640;28;20548;-75
2023/01/13 07:19:03;;;;;;;1.60;1.43;;;;;;;12.17;55.42;97291.66;8316102;28;20249;-75
2023/01/13 07:23:06;;;;;;;1.70;1.10;;;;;;;12.01;55.93;97287.38;8316213;28;20273;-74
2023/01/13 07:27:10;;;;;;;2.07;1.20;;;;;;;11.87;55.47;97287.34;8315871;28;20239;-76
2023/01/13 07:31:15;;;;;;;1.87;1.00;;;;;;;11.67;55.71;97288.53;8316031;28;20246;-75
2023/01/13 07:35:21;;;;;;;2.07;1.17;;;;;;;11.75;55.43;97278.56;8316003;28;20520;-74
2023/01/13 07:39:24;;;;;;;1.73;1.20;;;;;;;11.75;55.44;97273.38;8315476;28;20238;-75
2023/01/13 07:43:31;;;;;;;1.90;0.90;;;;;;;11.80;54.80;97284.28;8315297;28;20222;-75
2023/01/13 07:47:34;;;;;;;1.47;1.00;;;;;;;11.96;54.53;97279.06;8315192;28;20518;-75
2023/01/13 07:51:38;;;;;;;3.23;1.00;;;;;;;11.80;54.30;97284.28;8314472;28;20252;-75
2023/01/13 07:55:41;;;;;;;2.10;0.97;;;;;;;11.79;54.21;97279.22;8314211;28;20226;-75
2023/01/13 07:59:46;;;;;;;2.17;1.40;;;;;;;11.67;54.30;97280.75;8312979;28;20238;-75
2023/01/13 08:03:49;;;;;;;2.77;1.27;;;;;;;11.65;54.62;97269.63;8313513;28;20233;-75
2023/01/13 08:07:51;;;;;;;2.93;1.20;;;;;;;11.44;55.05;97285.56;8313232;28;20249;-75
2023/01/13 08:13:16;;;;;;;2.37;1.10;;;;;;;11.80;54.43;97284.28;8313422;28;20241;-74
2023/01/13 08:16:20;;;;;;;2.53;1.97;;;;;;;11.90;54.01;97282.84;8313245;28;20218;-75
2023/01/13 08:20:23;;;;;;;1.47;1.10;;;;;;;11.49;55.05;97290.47;8313108;28;20501;-75
2023/01/13 08:24:26;;;;;;;1.50;1.00;;;;;;;11.76;54.30;97293.19;8313122;28;20230;-76
2023/01/13 08:28:29;;;;;;;2.40;1.20;;;;;;;11.60;54.46;97266.50;8311077;28;20222;-76
2023/01/13 08:32:34;;;;;;;3.13;1.20;;;;;;;11.83;53.97;97299.66;8312981;28;20223;-75
2023/01/13 08:36:37;;;;;;;1.60;0.97;;;;;;;11.68;54.69;97296.22;8312489;28;20226;-74
2023/01/13 08:40:40;;;;;;;2.37;1.20;;;;;;;11.45;55.88;97309.72;8312791;28;20230;-71
2023/01/13 08:44:43;;;;;;;2.30;1.63;;;;;;;11.65;57.23;97313.72;8317772;28;20390;-74
2023/01/13 08:48:47;;;;;;;2.00;1.53;;;;;;;11.50;58.04;97308.53;8312257;28;20233;-75
2023/01/13 08:52:50;;;;;;;2.20;1.30;;;;;;;11.67;58.75;97312.72;8311878;28;20226;-77
2023/01/13 08:56:53;;;;;;;3.57;1.50;;;;;;;11.60;59.17;97334.75;8312412;28;20577;-76
2023/01/13 09:00:56;;;;;;;2.03;1.60;;;;;;;11.61;59.73;97341.59;8312354;28;20263;-76
2023/01/13 09:05:02;;;;;;;2.00;1.67;;;;;;;11.42;61.17;97351.38;8317179;28;20238;-76
2023/01/13 09:09:05;;;;;;;2.30;1.57;;;;;;;11.46;61.69;97355.44;8311829;28;20294;-75
2023/01/13 09:13:12;;;;;;;2.37;1.57;;;;;;;11.38;62.59;97355.06;8311912;28;20226;-76
2023/01/13 09:17:15;;;;;;;1.97;1.63;;;;;;;11.38;63.13;97360.25;8311905;28;20249;-76
2023/01/13 09:21:19;;;;;;;2.00;1.80;;;;;;;11.84;61.89;97379.19;8311741;28;20226;-77
2023/01/13 09:25:22;;;;;;;2.77;1.30;;;;;;;11.68;62.59;97391.38;8311716;28;20230;-76
2023/01/13 09:29:25;;;;;;;3.17;1.40;;;;;;;11.78;63.16;97417.59;8311838;28;20227;-76
2023/01/13 09:37:49;;;;;;;1.17;0.60;;;;;;;11.04;66.11;97429.53;8310893;28;20391;-75
2023/01/13 09:50:50;;;;;;;1.67;1.00;;;;;;;11.44;63.90;97432.50;8311371;28;20230;-76
2023/01/13 09:54:58;;;;;;;1.33;0.90;;;;;;;12.85;79.25;97428.53;8311041;28;20233;-76
2023/01/13 09:59:01;;;;;;;1.87;0.80;;;;;;;13.47;68.69;97435.94;8311734;28;20242;-74
2023/01/13 10:03:20;;;;;;;1.17;0.50;;;;;;;12.33;61.46;97419.56;8311223;28;20277;-74
2023/01/13 10:07:23;;;;;;;1.37;0.70;;;;;;;12.27;61.53;97412.97;8311307;28;20235;-74
2023/01/13 10:16:10;;;;;;;0.90;0.90;;;;;;;12.16;60.97;97428.38;8314292;28;20502;-76
2023/01/13 10:20:18;;;;;;;0.47;0.47;;;;;;;11.96;61.72;97426.97;8316939;28;20281;-76
2023/01/13 10:24:27;;;;;;;0.97;0.60;;;;;;;11.91;61.77;97427.22;8316851;28;20241;-76
2023/01/13 10:28:31;;;;;;;2.03;1.93;;;;;;;11.84;62.83;97450.97;8316828;28;20226;-76
2023/01/13 10:32:34;;;;;;;2.90;1.30;;;;;;;11.59;63.87;97451.53;8316948;28;20226;-76
2023/01/13 10:36:37;;;;;;;1.07;1.00;;;;;;;11.68;63.29;97444.06;8316597;28;20281;-76
2023/01/13 10:40:47;;;;;;;0.70;0.70;;;;;;;11.36;63.40;97445.88;8316092;28;20230;-77
2023/01/13 10:44:53;;;;;;;1.40;1.30;;;;;;;11.65;62.75;97441.66;8316147;28;20434;-76
2023/01/13 10:48:57;;;;;;;0.97;0.73;;;;;;;11.61;62.65;97424.59;8316132;28;20282;-76
2023/01/13 10:53:01;;;;;;;2.07;1.50;;;;;;;11.99;62.52;97447.50;8315611;28;20325;-77
2023/01/13 10:57:17;;;;;;;1.30;1.20;;;;;;;11.95;61.78;97432.22;8315820;28;20294;-76
2023/01/13 11:01:26;;;;;;;0.80;0.80;;;;;;;12.13;61.51;97437.19;8315849;28;20249;-77
2023/01/13 11:05:29;;;;;;;1.60;1.50;;;;;;;12.34;61.45;97426.44;8316095;28;20516;-77
2023/01/13 11:09:37;;;;;;;1.77;1.43;;;;;;;12.44;61.02;97421.53;8316480;28;20230;-78
2023/01/13 11:14:31;;;;;;;1.37;0.93;;;;;;;12.47;61.54;97427.38;8315925;28;20238;-79
2023/01/13 11:18:13;;;;;;;0.77;0.50;;;;;;;12.47;60.15;97417.00;8315212;28;20230;-78
2023/01/13 11:22:19;;;;;;;2.03;0.90;;;;;;;12.67;60.14;97420.94;8315897;28;20227;-78
2023/01/13 11:26:26;;;;;;;1.53;0.90;;;;;;;12.67;59.18;97422.72;8314695;28;20314;-78
2023/01/13 11:30:34;;;;;;;1.90;0.87;;;;;;;12.82;58.57;97407.94;8315632;28;20245;-77
2023/01/13 11:34:40;;;;;;;1.67;1.00;;;;;;;12.97;57.97;97406.16;8315155;28;20230;-77
2023/01/13 11:38:47;;;;;;;3.93;1.70;;;;;;;12.40;58.67;97394.91;8314676;28;20378;-77
2023/01/13 11:42:54;;;;;;;2.73;1.20;;;;;;;12.70;58.74;97415.56;8314788;28;20234;-76
2023/01/13 11:46:57;;;;;;;4.20;1.10;;;;;;;12.56;58.36;97427.75;8315067;28;20517;-77
2023/01/13 11:51:06;;;;;;;2.43;0.90;;;;;;;12.27;59.17;97420.78;8314546;28;20293;-77
2023/01/13 11:55:20;;;;;;;2.10;0.60;;;;;;;12.39;58.15;97415.78;8314380;28;20226;-77
2023/01/13 11:59:41;;;;;;;1.43;0.80;;;;;;;12.53;58.05;97439.16;8314500;28;20246;-78
2023/01/13 12:03:48;;;;;;;2.67;0.90;;;;;;;12.42;57.74;97444.16;8314059;28;20502;-78
2023/01/13 12:07:59;;;;;;;0.90;0.70;;;;;;;11.77;58.05;97419.38;8314029;28;20277;-79
2023/01/13 12:12:26;;;;;;;2.40;1.00;;;;;;;11.74;57.74;97445.47;8314049;28;20231;-79
2023/01/13 12:16:30;;;;;;;2.03;1.10;;;;;;;11.92;57.43;97454.00;8313961;28;20238;-79
2023/01/13 12:20:39;;;;;;;6.30;2.20;;;;;;;11.77;57.30;97431.53;8314157;28;20222;-80
2023/01/13 12:24:48;;;;;;;4.07;1.70;;;;;;;12.04;57.09;97450.69;8313597;28;20511;-78
2023/01/13 12:28:54;;;;;;;2.87;1.87;;;;;;;12.14;56.89;97456.16;8313633;28;20230;-79
2023/01/13 12:33:06;;;;;;;2.03;1.40;;;;;;;11.98;57.11;97466.63;8313668;28;20229;-80
2023/01/13 12:37:14;;;;;;;2.80;1.07;;;;;;;12.09;56.67;97446.06;8312871;28;20542;-79
2023/01/13 12:41:31;;;;;;;1.53;1.00;;;;;;;11.92;56.31;97410.72;8313472;28;20416;-79
2023/01/13 12:45:34;;;;;;;6.03;1.27;;;;;;;11.91;57.02;97440.19;8313602;28;20425;-80
2023/01/13 12:49:37;;;;;;;2.50;1.07;;;;;;;12.00;57.02;97443.19;8313481;28;20292;-80
2023/01/13 12:53:40;;;;;;;2.10;1.17;;;;;;;11.94;58.00;97449.56;8318786;28;20226;-77
2023/01/13 12:58:08;;;;;;;3.17;1.07;;;;;;;11.71;57.82;97467.25;8312446;28;20422;-77
2023/01/13 13:02:30;;;;;;;2.37;0.87;;;;;;;11.79;58.02;97468.59;8312524;28;20227;-79
2023/01/13 13:06:36;;;;;;;4.80;1.43;;;;;;;11.95;57.88;97466.78;8312390;28;20230;-75
2023/01/13 13:10:40;;;;;;;2.10;0.90;;;;;;;11.86;57.60;97475.91;8313107;28;20226;-78
2023/01/13 13:15:04;;;;;;;3.43;1.10;;;;;;;12.12;56.37;97473.59;8312884;28;20233;-78
2023/01/13 13:19:42;;;;;;;2.73;1.10;;;;;;;11.94;55.01;97472.91;8313238;28;20230;-78
2023/01/13 13:23:59;;;;;;;2.60;1.27;;;;;;;11.81;54.74;97462.38;8312746;28;20502;-79
2023/01/13 13:28:14;;;;;;;3.07;1.30;;;;;;;11.90;54.34;97467.06;8312841;28;20226;-78
2023/01/13 13:33:07;;;;;;;5.60;1.27;;;;;;;12.32;53.75;97470.66;8313882;28;20235;-78
2023/01/13 13:37:32;;;;;;;3.27;1.10;;;;;;;11.73;54.11;97478.38;8212803;29;20228;-79
2023/01/13 13:50:23;;;;;;;2.40;1.00;;;;;;;12.08;54.54;97513.63;8306191;28;20301;-80
2023/01/13 13:54:27;;;;;;;3.30;0.90;;;;;;;11.82;53.63;97502.97;8319114;28;20278;-78
2023/01/13 13:58:35;;;;;;;5.50;1.17;;;;;;;11.92;53.86;97508.50;8319217;28;20528;-75
2023/01/13 14:02:38;;;;;;;5.37;1.07;;;;;;;11.78;53.87;97509.22;8318859;28;20293;-76
2023/01/13 14:06:49;;;;;;;3.50;1.00;;;;;;;11.96;53.59;97516.94;8318184;28;20235;-76
2023/01/13 14:10:56;;;;;;;3.47;1.00;;;;;;;11.89;52.84;97524.19;8318337;28;20230;-74
2023/01/13 14:14:58;;;;;;;1.47;0.90;;;;;;;12.04;53.28;97518.16;8318422;28;20525;-76
2023/01/13 14:19:01;;;;;;;3.97;1.20;;;;;;;11.80;52.52;97519.53;8318150;28;20234;-74
2023/01/13 14:23:05;;;;;;;4.67;1.70;;;;;;;11.87;52.85;97531.25;8318453;28;20419;-75
2023/01/13 14:27:10;;;;;;;4.80;1.30;;;;;;;12.27;51.54;97527.22;8318134;28;20226;-75
2023/01/13 14:31:13;;;;;;;2.97;1.30;;;;;;;12.07;51.59;97527.53;8317951;28;20226;-76
2023/01/13 14:35:17;;;;;;;5.13;1.40;;;;;;;11.98;51.28;97533.25;8318281;28;20425;-76
2023/01/13 14:39:24;;;;;;;4.33;1.40;;;;;;;11.89;51.20;97543.22;8318169;28;20522;-76
2023/01/13 14:43:29;;;;;;;3.93;1.37;;;;;;;11.79;51.42;97539.44;8318070;28;20566;-76
2023/01/13 14:47:32;;;;;;;4.50;1.40;;;;;;;11.81;51.38;97549.75;8317783;28;20268;-76
2023/01/13 14:51:35;;;;;;;4.83;1.47;;;;;;;11.42;51.44;97556.19;8317667;28;20226;-74
2023/01/13 14:55:39;;;;;;;6.40;1.37;;;;;;;11.42;52.07;97549.25;8317325;28;20519;-74
2023/01/13 14:59:50;;;;;;;4.53;1.20;;;;;;;11.31;51.99;97543.84;8316551;28;20222;-73
2023/01/13 15:03:53;;;;;;;3.23;1.03;;;;;;;11.28;52.32;97556.94;8316712;28;20337;-73
2023/01/13 15:07:57;;;;;;;4.97;1.20;;;;;;;11.33;52.29;97560.97;8316617;28;20234;-76
2023/01/13 15:12:14;;;;;;;3.67;1.20;;;;;;;11.13;52.33;97562.00;8316841;28;20413;-75
2023/01/13 15:16:21;;;;;;;3.00;0.97;;;;;;;10.84;53.34;97583.44;8316438;28;20256;-76
2023/01/13 15:20:24;;;;;;;3.97;1.33;;;;;;;10.99;52.71;97579.22;8316415;28;20238;-76
2023/01/13 15:24:28;;;;;;;4.07;3.10;;;;;;;10.97;52.57;97584.50;8316072;28;20222;-76
2023/01/13 15:28:31;;;;;;;6.30;3.53;;;;;;;10.84;53.25;97580.84;8316253;28;20417;-75
2023/01/13 15:32:35;;;;;;;10.90;8.60;;;;;;;11.00;52.87;97593.84;8315857;28;20399;-75
2023/01/13 15:36:40;;;;;;;6.10;4.67;;;;;;;10.89;53.31;97591.78;8315667;28;20257;-75
2023/01/13 15:40:42;;;;;;;4.57;2.43;;;;;;;11.10;52.95;97590.69;8315426;28;20237;-76
2023/01/13 15:49:13;;;;;;;5.53;1.40;;;;;;;10.84;53.90;97617.94;8315526;28;20515;-75
2023/01/13 15:53:18;;;;;;;2.67;1.53;;;;;;;10.69;54.70;97629.91;8315403;28;20383;-75
2023/01/13 15:57:23;;;;;;;5.23;1.47;;;;;;;10.68;55.20;97642.94;8315319;28;20509;-75
2023/01/13 16:01:26;;;;;;;3.10;1.00;;;;;;;10.32;55.89;97613.63;8315097;28;20226;-75
2023/01/13 16:05:30;;;;;;;4.63;1.37;;;;;;;10.43;56.21;97645.91;8314462;28;20232;-76
2023/01/13 16:09:34;;;;;;;3.70;1.50;;;;;;;10.15;55.90;97609.25;8314978;28;20344;-76
2023/01/13 16:13:36;;;;;;;2.60;1.17;;;;;;;10.54;55.68;97665.19;8314076;28;20234;-75
2023/01/13 16:17:39;;;;;;;5.93;1.47;;;;;;;10.28;55.26;97666.44;8314541;28;20448;-76
2023/01/13 16:21:44;;;;;;;4.93;1.20;;;;;;;10.33;55.14;97687.75;8313923;28;20226;-75
2023/01/13 16:25:47;;;;;;;5.17;1.60;;;;;;;10.37;55.39;97711.75;8314173;28;20238;-75
2023/01/13 16:29:51;;;;;;;4.23;1.60;;;;;;;9.95;56.84;97728.34;8314266;28;20228;-74
2023/01/13 16:33:54;;;;;;;4.83;1.30;;;;;;;10.30;56.56;97724.16;8314628;28;20241;-74
2023/01/13 16:37:58;;;;;;;6.10;1.60;;;;;;;10.29;56.14;97737.97;8314499;28;20227;-75
2023/01/13 16:42:01;;;;;;;4.73;1.40;;;;;;;10.25;55.89;97733.84;8314107;28;20237;-75
2023/01/13 16:46:15;;;;;;;3.60;1.17;;;;;;;9.96;55.77;97733.44;8313911;28;20233;-76
2023/01/13 16:50:23;;;;;;;5.23;1.73;;;;;;;10.16;55.07;97752.38;8313700;28;20222;-76
2023/01/13 16:54:27;;;;;;;2.40;1.00;;;;;;;10.28;54.23;97751.84;8313535;28;20226;-75
2023/01/13 16:58:30;;;;;;;4.40;1.90;;;;;;;10.27;54.19;97760.50;8313573;28;20465;-75
2023/01/13 17:02:33;;;;;;;4.73;2.00;;;;;;;10.30;54.13;97772.44;8313337;28;20532;-76
2023/01/13 17:06:38;;;;;;;5.13;2.13;;;;;;;10.43;53.35;97773.59;8313126;28;20251;-76
2023/01/13 17:10:42;;;;;;;4.57;2.07;;;;;;;10.43;53.44;97777.94;8313404;28;20263;-75
2023/01/13 17:14:44;;;;;;;5.27;2.30;;;;;;;10.41;54.06;97772.00;8312742;28;20233;-76
2023/01/13 17:18:48;;;;;;;5.50;1.70;;;;;;;10.29;54.37;97786.31;8312928;28;20531;-76
2023/01/13 17:22:51;;;;;;;5.77;1.40;;;;;;;10.27;54.27;97782.97;8313547;28;20251;-76
2023/01/13 17:27:02;;;;;;;5.40;1.63;;;;;;;10.29;54.04;97799.25;8319625;28;20232;-76
2023/01/13 17:31:05;;;;;;;5.60;1.70;;;;;;;10.17;54.33;97798.06;8319328;28;20224;-76
2023/01/13 17:35:08;;;;;;;5.17;2.00;;;;;;;10.24;54.58;97796.88;8319722;28;20233;-76
2023/01/13 17:39:15;;;;;;;6.37;1.83;;;;;;;10.07;54.83;97797.66;8319782;28;20648;-76
2023/01/13 17:43:20;;;;;;;5.80;2.60;;;;;;;10.33;54.41;97800.81;8318961;28;20226;-75
2023/01/13 17:47:22;;;;;;;6.97;2.03;;;;;;;10.27;54.26;97790.72;8318991;28;20225;-76
2023/01/13 17:51:25;;;;;;;6.73;2.00;;;;;;;10.25;54.59;97797.72;8319124;28;20229;-76
2023/01/13 17:55:28;;;;;;;8.70;2.00;;;;;;;10.41;53.72;97790.13;8318883;28;20421;-76
2023/01/13 17:59:32;;;;;;;4.70;1.50;;;;;;;10.36;53.80;97774.81;8318896;28;20234;-77
2023/01/13 18:03:35;;;;;;;7.30;1.90;;;;;;;10.26;54.16;97789.03;8318625;28;20525;-77
2023/01/13 18:07:38;;;;;;;7.97;2.30;;;;;;;10.32;54.13;97786.22;8318633;28;20243;-76
2023/01/13 18:11:40;;;;;;;4.40;1.60;;;;;;;10.53;53.84;97794.75;8318600;28;20559;-77
2023/01/13 18:15:45;;;;;;;6.17;1.97;;;;;;;10.22;53.63;97792.69;8317961;28;20433;-75
2023/01/13 18:28:31;;;;;;;6.00;1.90;;;;;;;10.17;53.37;97811.84;8318251;28;20232;-79
2023/01/13 18:32:36;;;;;;;6.60;1.67;;;;;;;10.37;53.33;97817.88;8317933;28;20538;-79
2023/01/13 18:36:38;;;;;;;6.40;1.90;;;;;;;10.52;53.36;97824.09;8317097;28;20235;-77
2023/01/13 18:40:43;;;;;;;10.23;2.50;;;;;;;10.34;53.37;97833.56;8317389;28;20228;-77
2023/01/13 18:44:45;;;;;;;6.37;1.83;;;;;;;10.24;53.64;97840.84;8317258;28;20237;-76
2023/01/13 18:48:50;;;;;;;6.40;1.93;;;;;;;10.41;53.25;97849.66;8317454;28;20427;-77
2023/01/13 18:52:52;;;;;;;4.20;1.70;;;;;;;10.46;53.11;97850.28;8317510;28;20240;-77
2023/01/13 18:56:56;;;;;;;6.67;1.67;;;;;;;10.35;52.97;97849.00;8317054;28;20232;-75
2023/01/13 19:01:03;;;;;;;5.47;1.80;;;;;;;10.25;53.33;97865.84;8316928;28;20254;-84
2023/01/13 19:05:09;;;;;;;7.63;1.50;;;;;;;10.37;52.93;97849.78;8316796;28;20241;-79
2023/01/13 19:09:12;;;;;;;6.40;1.70;;;;;;;10.47;53.09;97878.72;8317145;28;20534;-79
2023/01/13 19:13:15;;;;;;;6.63;1.90;;;;;;;10.48;52.70;97869.19;8317180;28;20227;-79
2023/01/13 19:17:18;;;;;;;9.13;2.67;;;;;;;11.51;71.78;97875.50;8317169;28;20426;-80
2023/01/13 19:21:22;;;;;;;9.20;1.87;;;;;;;13.03;67.83;97882.28;8317013;28;20229;-80
2023/01/13 19:25:27;;;;;;;9.53;2.00;;;;;;;12.92;56.60;97882.06;8316299;28;20431;-79
2023/01/13 19:29:30;;;;;;;5.23;1.83;;;;;;;12.93;50.25;97893.28;8316489;28;20226;-79
2023/01/13 19:33:37;;;;;;;6.00;1.70;;;;;;;11.57;51.03;97894.28;8316187;28;20230;-78
2023/01/13 19:37:42;;;;;;;5.50;1.90;;;;;;;11.21;51.61;97895.97;8316069;28;20537;-78
2023/01/13 19:46:05;;;;;;;6.77;2.00;;;;;;;10.78;52.62;97908.38;8315862;28;20226;-77
2023/01/13 19:50:10;;;;;;;8.43;3.20;;;;;;;10.46;52.97;97907.25;8315704;28;20580;-78
2023/01/13 19:54:14;;;;;;;5.27;2.10;;;;;;;10.47;53.65;97922.72;8315569;28;20281;-77
2023/01/13 19:58:18;;;;;;;7.87;2.60;;;;;;;10.56;52.84;97900.72;8315760;28;20230;-78
2023/01/13 20:02:27;;;;;;;6.60;1.73;;;;;;;10.47;53.21;97919.28;8315455;28;20353;-78
2023/01/13 20:06:30;;;;;;;5.83;2.20;;;;;;;10.61;53.39;97941.97;8314634;28;20235;-77
2023/01/13 20:10:35;;;;;;;4.90;1.73;;;;;;;10.63;52.95;97945.34;8315297;28;20533;-76
2023/01/13 20:14:37;;;;;;;7.30;2.00;;;;;;;10.56;53.51;97948.19;8315142;28;20232;-77
2023/01/13 20:18:41;;;;;;;7.13;1.80;;;;;;;10.49;53.46;97953.69;8314979;28;20229;-78
2023/01/13 20:22:43;;;;;;;6.20;1.80;;;;;;;10.05;53.54;97913.31;8313217;28;20237;-76
2023/01/13 20:26:47;;;;;;;5.63;1.90;;;;;;;10.54;53.00;97967.28;8314701;28;20324;-77
2023/01/13 20:30:50;;;;;;;5.20;1.40;;;;;;;10.40;53.58;97972.25;8314561;28;20219;-76
2023/01/13 20:34:53;;;;;;;4.23;1.50;;;;;;;10.40;53.57;97967.91;8314140;28;20387;-77
2023/01/13 20:38:57;;;;;;;5.70;1.90;;;;;;;10.39;53.69;97963.63;8314402;28;20240;-77